sensor_id;sensor_type;location;lat;lon;timestamp;pressure;altitude;pressure_sealevel;temperature;humidity
7832;BME280;3961;42.058;25.586;2023-04-24T00:00:13;63489.56;;;11.29;99.41
7832;BME280;3961;42.058;25.586;2023-04-24T00:02:40;63468.75;;;11.11;100.00
7832;BME280;3961;42.058;25.586;2023-04-24T00:05:07;63455.13;;;11.01;100.00
7832;BME280;3961;42.058;25.586;2023-04-24T00:07:33;63467.25;;;11.12;100.00
7832;BME280;3961;42.058;25.586;2023-04-24T00:09:59;63439.63;;;10.83;100.00
7832;BME280;3961;42.058;25.586;2023-04-24T00:12:26;63454.31;;;10.98;100.00
7832;BME280;3961;42.058;25.586;2023-04-24T00:14:52;63467.38;;;11.07;100.00
7832;BME280;3961;42.058;25.586;2023-04-24T00:17:17;63465.88;;;11.08;100.00
7832;BME280;3961;42.058;25.586;2023-04-24T00:19:47;63442.88;;;10.84;100.00
7832;BME280;3961;42.058;25.586;2023-04-24T00:22:13;63451.44;;;10.96;100.00
7832;BME280;3961;42.058;25.586;2023-04-24T00:24:40;63445.31;;;10.93;100.00
7832;BME280;3961;42.058;25.586;2023-04-24T00:27:05;63452.81;;;10.99;99.84
7832;BME280;3961;42.058;25.586;2023-04-24T00:29:31;63424.84;;;10.72;100.00
7832;BME280;3961;42.058;25.586;2023-04-24T00:31:57;63425.53;;;10.68;100.00
7832;BME280;3961;42.058;25.586;2023-04-24T00:34:22;63427.72;;;10.75;100.00
7832;BME280;3961;42.058;25.586;2023-04-24T00:36:48;63433.50;;;10.80;100.00
7832;BME280;3961;42.058;25.586;2023-04-24T00:39:21;63378.66;;;10.32;100.00
7832;BME280;3961;42.058;25.586;2023-04-24T00:41:47;63391.34;;;10.43;100.00
7832;BME280;3961;42.058;25.586;2023-04-24T00:44:14;63381.88;;;10.32;100.00
7832;BME280;3961;42.058;25.586;2023-04-24T00:46:39;63378.66;;;10.32;100.00
7832;BME280;3961;42.058;25.586;2023-04-24T00:49:05;63369.66;;;10.26;100.00
7832;BME280;3961;42.058;25.586;2023-04-24T00:51:32;63365.03;;;10.22;100.00
7832;BME280;3961;42.058;25.586;2023-04-24T00:53:58;63340.53;;;9.98;100.00
7832;BME280;3961;42.058;25.586;2023-04-24T00:56:24;63364.53;;;10.17;100.00
7832;BME280;3961;42.058;25.586;2023-04-24T00:58:50;63330.16;;;9.89;100.00
7832;BME280;3961;42.058;25.586;2023-04-24T01:01:16;63363.03;;;10.18;100.00
7832;BME280;3961;42.058;25.586;2023-04-24T01:03:42;63303.94;;;9.64;100.00
7832;BME280;3961;42.058;25.586;2023-04-24T01:06:09;63358.66;;;10.17;100.00
7832;BME280;3961;42.058;25.586;2023-04-24T01:08:35;63370.00;;;10.24;100.00
7832;BME280;3961;42.058;25.586;2023-04-24T01:11:03;63364.69;;;10.24;100.00
7832;BME280;3961;42.058;25.586;2023-04-24T01:13:29;63358.31;;;10.19;100.00
7832;BME280;3961;42.058;25.586;2023-04-24T01:15:55;63380.72;;;10.31;100.00
7832;BME280;3961;42.058;25.586;2023-04-24T01:18:20;63403.81;;;10.52;100.00
7832;BME280;3961;42.058;25.586;2023-04-24T01:20:46;63417.13;;;10.63;100.00
7832;BME280;3961;42.058;25.586;2023-04-24T01:23:13;63429.13;;;10.78;100.00
7832;BME280;3961;42.058;25.586;2023-04-24T01:25:38;63450.28;;;10.95;100.00
7832;BME280;3961;42.058;25.586;2023-04-24T01:28:04;63424.84;;;10.72;100.00
7832;BME280;3961;42.058;25.586;2023-04-24T01:30:30;63372.66;;;10.24;100.00
7832;BME280;3961;42.058;25.586;2023-04-24T01:32:56;63392.75;;;10.47;100.00
7832;BME280;3961;42.058;25.586;2023-04-24T01:35:24;63356.34;;;10.15;100.00
7832;BME280;3961;42.058;25.586;2023-04-24T01:37:50;63368.50;;;10.25;100.00
7832;BME280;3961;42.058;25.586;2023-04-24T01:40:15;63370.22;;;10.27;100.00
7832;BME280;3961;42.058;25.586;2023-04-24T01:42:41;63358.66;;;10.17;100.00
7832;BME280;3961;42.058;25.586;2023-04-24T01:45:10;63337.06;;;9.95;100.00
7832;BME280;3961;42.058;25.586;2023-04-24T01:47:36;63320.91;;;9.81;100.00
7832;BME280;3961;42.058;25.586;2023-04-24T01:50:02;63325.53;;;9.85;100.00
7832;BME280;3961;42.058;25.586;2023-04-24T01:52:28;63304.19;;;9.66;100.00
7832;BME280;3961;42.058;25.586;2023-04-24T01:54:56;63322.41;;;9.80;100.00
7832;BME280;3961;42.058;25.586;2023-04-24T01:57:25;63318.84;;;9.82;100.00
7832;BME280;3961;42.058;25.586;2023-04-24T01:59:51;63308.00;;;9.67;100.00
7832;BME280;3961;42.058;25.586;2023-04-24T02:02:17;63305.59;;;9.70;100.00
7832;BME280;3961;42.058;25.586;2023-04-24T02:04:42;63293.31;;;9.52;100.00
7832;BME280;3961;42.058;25.586;2023-04-24T02:07:08;63250.31;;;9.17;100.00
7832;BME280;3961;42.058;25.586;2023-04-24T02:09:34;63290.34;;;9.54;100.00
7832;BME280;3961;42.058;25.586;2023-04-24T02:11:59;63294.38;;;9.58;100.00
7832;BME280;3961;42.058;25.586;2023-04-24T02:14:26;63301.63;;;9.62;100.00
7832;BME280;3961;42.058;25.586;2023-04-24T02:16:51;63235.22;;;9.08;100.00
7832;BME280;3961;42.058;25.586;2023-04-24T02:19:17;63282.03;;;9.44;100.00
7832;BME280;3961;42.058;25.586;2023-04-24T02:21:42;63290.91;;;9.55;100.00
7832;BME280;3961;42.058;25.586;2023-04-24T02:24:08;63284.31;;;9.47;100.00
7832;BME280;3961;42.058;25.586;2023-04-24T02:26:43;63312.84;;;9.74;100.00
7832;BME280;3961;42.058;25.586;2023-04-24T02:29:08;63319.66;;;9.85;100.00
7832;BME280;3961;42.058;25.586;2023-04-24T02:31:34;63306.16;;;9.70;100.00
7832;BME280;3961;42.058;25.586;2023-04-24T02:33:59;63295.28;;;9.56;100.00
7832;BME280;3961;42.058;25.586;2023-04-24T02:36:25;63317.44;;;9.78;100.00
7832;BME280;3961;42.058;25.586;2023-04-24T02:38:50;63294.38;;;9.58;100.00
7832;BME280;3961;42.058;25.586;2023-04-24T02:41:16;63309.97;;;9.71;100.00
7832;BME280;3961;42.058;25.586;2023-04-24T02:43:41;63303.03;;;9.65;100.00
7832;BME280;3961;42.058;25.586;2023-04-24T02:46:07;63333.63;;;9.92;100.00
7832;BME280;3961;42.058;25.586;2023-04-24T02:48:32;63328.19;;;9.85;100.00
7832;BME280;3961;42.058;25.586;2023-04-24T02:50:58;63340.78;;;10.01;100.00
7832;BME280;3961;42.058;25.586;2023-04-24T02:53:24;63347.56;;;10.00;100.00
7832;BME280;3961;42.058;25.586;2023-04-24T02:55:49;63346.91;;;10.04;100.00
7832;BME280;3961;42.058;25.586;2023-04-24T02:58:15;63305.69;;;9.65;100.00
7832;BME280;3961;42.058;25.586;2023-04-24T03:00:41;63341.94;;;10.02;100.00
7832;BME280;3961;42.058;25.586;2023-04-24T03:03:06;63352.06;;;10.08;100.00
7832;BME280;3961;42.058;25.586;2023-04-24T03:05:32;63365.69;;;10.18;100.00
7832;BME280;3961;42.058;25.586;2023-04-24T03:07:58;63364.78;;;10.20;100.00
7832;BME280;3961;42.058;25.586;2023-04-24T03:10:23;63374.03;;;10.28;100.00
7832;BME280;3961;42.058;25.586;2023-04-24T03:12:49;63373.69;;;10.30;100.00
7832;BME280;3961;42.058;25.586;2023-04-24T03:15:16;63344.25;;;10.04;100.00
7832;BME280;3961;42.058;25.586;2023-04-24T03:17:41;63348.25;;;10.07;100.00
7832;BME280;3961;42.058;25.586;2023-04-24T03:20:07;63350.13;;;10.04;100.00
7832;BME280;3961;42.058;25.586;2023-04-24T03:22:34;63340.53;;;9.98;100.00
7832;BME280;3961;42.058;25.586;2023-04-24T03:25:00;63321.81;;;9.80;100.00
7832;BME280;3961;42.058;25.586;2023-04-24T03:27:25;63313.63;;;9.77;100.00
7832;BME280;3961;42.058;25.586;2023-04-24T03:29:51;63289.06;;;9.58;100.00
7832;BME280;3961;42.058;25.586;2023-04-24T03:32:23;63326.44;;;9.84;100.00
7832;BME280;3961;42.058;25.586;2023-04-24T03:34:49;63349.53;;;10.04;100.00
7832;BME280;3961;42.058;25.586;2023-04-24T03:37:18;63320.66;;;9.78;100.00
7832;BME280;3961;42.058;25.586;2023-04-24T03:39:43;63327.38;;;9.82;100.00
7832;BME280;3961;42.058;25.586;2023-04-24T03:42:09;63323.47;;;9.86;100.00
7832;BME280;3961;42.058;25.586;2023-04-24T03:44:35;63322.06;;;9.82;100.00
7832;BME280;3961;42.058;25.586;2023-04-24T03:47:00;63327.16;;;9.91;100.00
7832;BME280;3961;42.058;25.586;2023-04-24T03:49:26;63326.44;;;9.84;100.00
7832;BME280;3961;42.058;25.586;2023-04-24T03:51:51;63349.19;;;10.06;100.00
7832;BME280;3961;42.058;25.586;2023-04-24T03:54:18;63497.31;;;11.38;100.00
7832;BME280;3961;42.058;25.586;2023-04-24T03:56:44;63574.00;;;12.03;95.81
7832;BME280;3961;42.058;25.586;2023-04-24T03:59:10;63655.03;;;12.74;88.92
7832;BME280;3961;42.058;25.586;2023-04-24T04:01:36;63789.09;;;13.94;79.32
7832;BME280;3961;42.058;25.586;2023-04-24T04:04:06;63884.91;;;14.73;74.50
7832;BME280;3961;42.058;25.586;2023-04-24T04:06:32;64031.25;;;16.01;67.35
7832;BME280;3961;42.058;25.586;2023-04-24T04:08:58;64034.50;;;16.02;65.43
7832;BME280;3961;42.058;25.586;2023-04-24T04:11:24;64196.06;;;17.48;61.42
7832;BME280;3961;42.058;25.586;2023-04-24T04:13:49;64291.91;;;18.29;56.18
7832;BME280;3961;42.058;25.586;2023-04-24T04:16:15;64242.63;;;17.88;55.80
7832;BME280;3961;42.058;25.586;2023-04-24T04:18:42;64468.78;;;19.85;50.63
7832;BME280;3961;42.058;25.586;2023-04-24T04:21:08;64327.47;;;18.60;53.42
7832;BME280;3961;42.058;25.586;2023-04-24T04:23:33;64580.06;;;20.79;47.91
7832;BME280;3961;42.058;25.586;2023-04-24T04:25:59;64590.59;;;20.89;47.34
7832;BME280;3961;42.058;25.586;2023-04-24T04:28:25;64399.75;;;19.23;50.33
7832;BME280;3961;42.058;25.586;2023-04-24T04:30:50;64272.94;;;18.15;53.41
7832;BME280;3961;42.058;25.586;2023-04-24T04:33:20;64073.69;;;16.38;59.53
7832;BME280;3961;42.058;25.586;2023-04-24T04:35:46;64118.94;;;16.83;60.33
7832;BME280;3961;42.058;25.586;2023-04-24T04:38:14;64301.09;;;18.41;54.49
7832;BME280;3961;42.058;25.586;2023-04-24T04:40:40;64412.56;;;19.34;51.86
7832;BME280;3961;42.058;25.586;2023-04-24T04:43:06;64540.59;;;20.48;48.30
7832;BME280;3961;42.058;25.586;2023-04-24T04:45:32;64684.34;;;21.72;44.51
7832;BME280;3961;42.058;25.586;2023-04-24T04:48:00;64683.16;;;21.71;44.17
7832;BME280;3961;42.058;25.586;2023-04-24T04:50:26;64627.06;;;21.23;45.83
7832;BME280;3961;42.058;25.586;2023-04-24T04:52:52;64613.75;;;21.06;45.85
7832;BME280;3961;42.058;25.586;2023-04-24T04:55:18;64644.38;;;21.35;45.66
7832;BME280;3961;42.058;25.586;2023-04-24T04:57:48;64701.41;;;21.83;45.05
7832;BME280;3961;42.058;25.586;2023-04-24T05:00:14;64631.16;;;21.26;45.25
7832;BME280;3961;42.058;25.586;2023-04-24T05:02:39;64712.53;;;21.92;43.59
7832;BME280;3961;42.058;25.586;2023-04-24T05:05:06;64741.06;;;22.22;43.23
7832;BME280;3961;42.058;25.586;2023-04-24T05:07:32;64856.13;;;23.19;40.39
7832;BME280;3961;42.058;25.586;2023-04-24T05:09:58;64564.31;;;20.66;45.85
7832;BME280;3961;42.058;25.586;2023-04-24T05:12:23;64437.31;;;19.58;49.00
7832;BME280;3961;42.058;25.586;2023-04-24T05:14:49;64243.38;;;17.84;53.78
7832;BME280;3961;42.058;25.586;2023-04-24T05:17:15;64139.97;;;16.96;59.06
7832;BME280;3961;42.058;25.586;2023-04-24T05:19:40;64020.66;;;15.97;63.60
7832;BME280;3961;42.058;25.586;2023-04-24T05:22:06;64046.94;;;16.15;65.06
7832;BME280;3961;42.058;25.586;2023-04-24T05:24:35;64037.06;;;16.06;65.28
7832;BME280;3961;42.058;25.586;2023-04-24T05:27:04;64001.50;;;15.80;67.58
7832;BME280;3961;42.058;25.586;2023-04-24T05:29:33;64015.44;;;15.92;66.80
7832;BME280;3961;42.058;25.586;2023-04-24T05:31:59;63958.41;;;15.35;68.76
7832;BME280;3961;42.058;25.586;2023-04-24T05:34:26;63996.75;;;15.69;67.66
7832;BME280;3961;42.058;25.586;2023-04-24T05:36:52;63851.84;;;14.44;74.51
7832;BME280;3961;42.058;25.586;2023-04-24T05:39:18;63894.44;;;14.84;74.37
7832;BME280;3961;42.058;25.586;2023-04-24T05:41:45;63964.56;;;15.50;72.57
7832;BME280;3961;42.058;25.586;2023-04-24T05:44:10;63929.03;;;15.12;71.73
7832;BME280;3961;42.058;25.586;2023-04-24T05:46:35;63896.19;;;14.86;73.58
7832;BME280;3961;42.058;25.586;2023-04-24T05:49:01;63919.63;;;15.08;75.26
7832;BME280;3961;42.058;25.586;2023-04-24T05:51:28;63887.13;;;14.80;76.66
7832;BME280;3961;42.058;25.586;2023-04-24T05:53:53;63945.16;;;15.31;74.48
7832;BME280;3961;42.058;25.586;2023-04-24T05:56:19;63940.66;;;15.22;74.56
7832;BME280;3961;42.058;25.586;2023-04-24T05:58:46;64071.94;;;16.37;73.87
7832;BME280;3961;42.058;25.586;2023-04-24T06:01:12;64090.19;;;16.55;68.54
7832;BME280;3961;42.058;25.586;2023-04-24T06:03:40;64171.03;;;17.26;65.17
7832;BME280;3961;42.058;25.586;2023-04-24T06:06:07;64161.50;;;17.15;65.29
7832;BME280;3961;42.058;25.586;2023-04-24T06:08:33;64160.34;;;17.14;64.44
7832;BME280;3961;42.058;25.586;2023-04-24T06:10:59;64184.78;;;17.35;63.93
7832;BME280;3961;42.058;25.586;2023-04-24T06:13:24;64187.69;;;17.38;63.19
7832;BME280;3961;42.058;25.586;2023-04-24T06:15:50;64206.31;;;17.54;62.25
7832;BME280;3961;42.058;25.586;2023-04-24T06:18:16;64223.56;;;17.67;62.02
7832;BME280;3961;42.058;25.586;2023-04-24T06:20:42;64202.00;;;17.48;62.45
7832;BME280;3961;42.058;25.586;2023-04-24T06:23:08;64228.44;;;17.73;60.76
7832;BME280;3961;42.058;25.586;2023-04-24T06:25:33;64180.13;;;17.31;61.04
7832;BME280;3961;42.058;25.586;2023-04-24T06:27:59;64109.63;;;16.74;63.80
7832;BME280;3961;42.058;25.586;2023-04-24T06:30:24;64159.19;;;17.13;63.74
7832;BME280;3961;42.058;25.586;2023-04-24T06:32:50;64191.41;;;17.43;62.92
7832;BME280;3961;42.058;25.586;2023-04-24T06:35:16;64196.78;;;17.43;62.17
7832;BME280;3961;42.058;25.586;2023-04-24T06:37:42;64231.81;;;17.81;60.08
7832;BME280;3961;42.058;25.586;2023-04-24T06:40:08;64259.31;;;18.00;60.21
7832;BME280;3961;42.058;25.586;2023-04-24T06:42:35;64263.59;;;18.06;59.51
7832;BME280;3961;42.058;25.586;2023-04-24T06:45:01;64285.72;;;18.26;58.91
7832;BME280;3961;42.058;25.586;2023-04-24T06:47:26;64284.69;;;18.20;58.92
7832;BME280;3961;42.058;25.586;2023-04-24T06:49:52;64281.66;;;18.22;59.95
7832;BME280;3961;42.058;25.586;2023-04-24T06:52:18;64244.16;;;17.87;61.22
7832;BME280;3961;42.058;25.586;2023-04-24T06:54:44;64232.53;;;17.77;61.87
7832;BME280;3961;42.058;25.586;2023-04-24T06:57:09;64310.56;;;18.45;61.32
7832;BME280;3961;42.058;25.586;2023-04-24T06:59:35;64180.69;;;17.32;61.27
7832;BME280;3961;42.058;25.586;2023-04-24T07:02:01;64153.94;;;17.08;63.95
7832;BME280;3961;42.058;25.586;2023-04-24T07:04:26;64124.88;;;16.83;66.14
7832;BME280;3961;42.058;25.586;2023-04-24T07:06:53;64150.47;;;17.05;65.05
7832;BME280;3961;42.058;25.586;2023-04-24T07:09:21;64124.75;;;16.88;65.03
7832;BME280;3961;42.058;25.586;2023-04-24T07:11:47;64227.28;;;17.72;62.20
7832;BME280;3961;42.058;25.586;2023-04-24T07:14:13;64256.16;;;17.95;59.64
7832;BME280;3961;42.058;25.586;2023-04-24T07:16:39;64268.28;;;18.10;60.54
7832;BME280;3961;42.058;25.586;2023-04-24T07:19:05;64291.56;;;18.31;59.74
7832;BME280;3961;42.058;25.586;2023-04-24T07:21:31;64337.97;;;18.69;57.67
7832;BME280;3961;42.058;25.586;2023-04-24T07:24:00;64273.88;;;18.13;59.95
7832;BME280;3961;42.058;25.586;2023-04-24T07:26:28;64236.47;;;17.85;61.08
7832;BME280;3961;42.058;25.586;2023-04-24T07:28:53;64291.91;;;18.29;60.37
7832;BME280;3961;42.058;25.586;2023-04-24T07:31:20;64334.09;;;18.68;58.39
7832;BME280;3961;42.058;25.586;2023-04-24T07:33:46;64395.66;;;19.19;56.00
7832;BME280;3961;42.058;25.586;2023-04-24T07:36:11;64319.28;;;18.53;56.97
7832;BME280;3961;42.058;25.586;2023-04-24T07:38:47;64430.63;;;19.50;57.05
7832;BME280;3961;42.058;25.586;2023-04-24T07:41:13;64461.22;;;19.78;55.16
7832;BME280;3961;42.058;25.586;2023-04-24T07:43:40;64486.66;;;19.98;53.98
7832;BME280;3961;42.058;25.586;2023-04-24T07:46:06;64492.50;;;20.03;51.50
7832;BME280;3961;42.058;25.586;2023-04-24T07:48:32;64496.00;;;20.06;52.16
7832;BME280;3961;42.058;25.586;2023-04-24T07:50:58;64489.81;;;20.03;53.19
7832;BME280;3961;42.058;25.586;2023-04-24T07:53:23;64529.63;;;20.33;53.39
7832;BME280;3961;42.058;25.586;2023-04-24T07:55:49;64502.78;;;20.10;52.26
7832;BME280;3961;42.058;25.586;2023-04-24T07:58:14;64468.78;;;19.85;52.72
7832;BME280;3961;42.058;25.586;2023-04-24T08:00:40;64528.69;;;20.35;54.57
7832;BME280;3961;42.058;25.586;2023-04-24T08:03:06;64504.97;;;20.17;53.65
7832;BME280;3961;42.058;25.586;2023-04-24T08:05:31;64476.53;;;19.87;54.43
7832;BME280;3961;42.058;25.586;2023-04-24T08:07:57;64416.88;;;19.40;54.11
7832;BME280;3961;42.058;25.586;2023-04-24T08:10:23;64403.47;;;19.28;56.98
7832;BME280;3961;42.058;25.586;2023-04-24T08:12:49;64389.63;;;19.11;57.36
7832;BME280;3961;42.058;25.586;2023-04-24T08:15:14;64366.88;;;18.92;56.41
7832;BME280;3961;42.058;25.586;2023-04-24T08:17:40;64358.16;;;18.84;58.12
7832;BME280;3961;42.058;25.586;2023-04-24T08:20:06;64417.81;;;19.38;57.55
7832;BME280;3961;42.058;25.586;2023-04-24T08:22:35;64379.13;;;19.02;56.88
7832;BME280;3961;42.058;25.586;2023-04-24T08:25:01;64411.63;;;19.35;56.84
7832;BME280;3961;42.058;25.586;2023-04-24T08:27:27;64411.41;;;19.33;58.75
7832;BME280;3961;42.058;25.586;2023-04-24T08:29:54;64360.69;;;18.89;58.34
7832;BME280;3961;42.058;25.586;2023-04-24T08:32:20;64339.72;;;18.70;58.88
7832;BME280;3961;42.058;25.586;2023-04-24T08:34:45;64396.81;;;19.20;59.90
7832;BME280;3961;42.058;25.586;2023-04-24T08:37:11;64439.41;;;19.57;56.14
7832;BME280;3961;42.058;25.586;2023-04-24T08:39:37;64402.28;;;19.27;58.10
7832;BME280;3961;42.058;25.586;2023-04-24T08:42:04;64415.50;;;19.36;56.87
7832;BME280;3961;42.058;25.586;2023-04-24T08:44:33;64439.63;;;19.60;56.71
7832;BME280;3961;42.058;25.586;2023-04-24T08:47:01;64531.03;;;20.37;55.37
7832;BME280;3961;42.058;25.586;2023-04-24T08:49:28;64618.03;;;21.12;52.16
7832;BME280;3961;42.058;25.586;2023-04-24T08:51:54;64652.91;;;21.40;53.15
7832;BME280;3961;42.058;25.586;2023-04-24T08:54:20;64715.47;;;21.95;50.83
7832;BME280;3961;42.058;25.586;2023-04-24T08:56:47;64629.97;;;21.25;51.48
7832;BME280;3961;42.058;25.586;2023-04-24T08:59:16;64619.59;;;21.11;51.05
7832;BME280;3961;42.058;25.586;2023-04-24T09:01:42;64651.38;;;21.41;49.43
7832;BME280;3961;42.058;25.586;2023-04-24T09:04:10;64633.25;;;21.26;50.37
7832;BME280;3961;42.058;25.586;2023-04-24T09:06:37;64706.53;;;21.92;50.25
7832;BME280;3961;42.058;25.586;2023-04-24T09:09:03;64710.41;;;21.93;49.91
7832;BME280;3961;42.058;25.586;2023-04-24T09:11:30;64768.31;;;22.43;47.04
7832;BME280;3961;42.058;25.586;2023-04-24T09:13:56;64655.84;;;21.43;48.04
7832;BME280;3961;42.058;25.586;2023-04-24T09:16:22;64674.84;;;21.69;49.16
7832;BME280;3961;42.058;25.586;2023-04-24T09:18:50;64718.84;;;22.02;49.33
7832;BME280;3961;42.058;25.586;2023-04-24T09:21:16;64763.28;;;22.41;47.78
7832;BME280;3961;42.058;25.586;2023-04-24T09:23:41;64787.50;;;22.64;47.34
7832;BME280;3961;42.058;25.586;2023-04-24T09:26:09;64739.09;;;22.18;46.96
7832;BME280;3961;42.058;25.586;2023-04-24T09:28:37;64670.66;;;21.58;48.40
7832;BME280;3961;42.058;25.586;2023-04-24T09:31:13;64662.69;;;21.54;47.76
7832;BME280;3961;42.058;25.586;2023-04-24T09:33:59;64680.81;;;21.69;48.35
7832;BME280;3961;42.058;25.586;2023-04-24T09:36:39;64583.00;;;20.82;49.72
7832;BME280;3961;42.058;25.586;2023-04-24T09:39:10;64634.44;;;21.27;49.48
7832;BME280;3961;42.058;25.586;2023-04-24T09:41:48;64657.22;;;21.46;48.97
7832;BME280;3961;42.058;25.586;2023-04-24T09:46:42;64813.63;;;22.85;46.60
7832;BME280;3961;42.058;25.586;2023-04-24T09:49:15;64839.94;;;23.07;45.10
7832;BME280;3961;42.058;25.586;2023-04-24T09:51:42;64780.38;;;22.51;45.54
7832;BME280;3961;42.058;25.586;2023-04-24T09:54:15;64847.94;;;23.12;44.04
7832;BME280;3961;42.058;25.586;2023-04-24T09:56:45;64865.50;;;23.27;43.44
7832;BME280;3961;42.058;25.586;2023-04-24T09:59:12;64836.00;;;22.99;42.67
7832;BME280;3961;42.058;25.586;2023-04-24T10:01:38;64744.13;;;22.20;45.44
7832;BME280;3961;42.058;25.586;2023-04-24T10:04:15;64689.22;;;21.79;45.88
7832;BME280;3961;42.058;25.586;2023-04-24T10:06:42;64719.78;;;22.01;43.77
7832;BME280;3961;42.058;25.586;2023-04-24T10:09:08;64784.34;;;22.59;43.85
7832;BME280;3961;42.058;25.586;2023-04-24T10:11:36;64775.72;;;22.47;43.68
7832;BME280;3961;42.058;25.586;2023-04-24T10:14:03;64709.03;;;21.89;45.66
7832;BME280;3961;42.058;25.586;2023-04-24T10:16:30;64778.50;;;22.54;45.04
7832;BME280;3961;42.058;25.586;2023-04-24T10:18:59;64862.00;;;23.24;44.08
7832;BME280;3961;42.058;25.586;2023-04-24T10:21:26;64856.34;;;23.22;45.33
7832;BME280;3961;42.058;25.586;2023-04-24T10:23:52;64898.75;;;23.61;44.92
7832;BME280;3961;42.058;25.586;2023-04-24T10:26:19;64942.03;;;23.91;43.50
7832;BME280;3961;42.058;25.586;2023-04-24T10:28:46;64906.16;;;23.65;45.11
7832;BME280;3961;42.058;25.586;2023-04-24T10:31:13;64897.50;;;23.53;47.23
7832;BME280;3961;42.058;25.586;2023-04-24T10:33:41;64745.28;;;22.21;48.69
7832;BME280;3961;42.058;25.586;2023-04-24T10:36:09;64688.22;;;21.73;50.52
7832;BME280;3961;42.058;25.586;2023-04-24T10:38:37;64686.44;;;21.72;51.72
7832;BME280;3961;42.058;25.586;2023-04-24T10:41:10;64700.09;;;21.86;51.33
7832;BME280;3961;42.058;25.586;2023-04-24T10:43:42;64656.03;;;21.45;51.22
7832;BME280;3961;42.058;25.586;2023-04-24T10:46:08;64689.75;;;21.72;52.37
7832;BME280;3961;42.058;25.586;2023-04-24T10:48:35;64763.06;;;22.38;49.24
7832;BME280;3961;42.058;25.586;2023-04-24T10:51:01;64823.72;;;22.89;49.05
7832;BME280;3961;42.058;25.586;2023-04-24T10:53:29;64768.13;;;22.40;49.52
7832;BME280;3961;42.058;25.586;2023-04-24T10:56:02;64691.13;;;21.76;51.94
7832;BME280;3961;42.058;25.586;2023-04-24T10:58:42;64698.72;;;21.83;52.76
7832;BME280;3961;42.058;25.586;2023-04-24T11:04:02;64691.72;;;21.76;51.95
7832;BME280;3961;42.058;25.586;2023-04-24T11:06:33;64684.34;;;21.72;51.73
7832;BME280;3961;42.058;25.586;2023-04-24T11:09:04;64700.25;;;21.82;51.66
7832;BME280;3961;42.058;25.586;2023-04-24T11:11:31;64786.47;;;22.59;45.24
7832;BME280;3961;42.058;25.586;2023-04-24T11:16:27;64875.25;;;23.33;42.49
7832;BME280;3961;42.058;25.586;2023-04-24T11:19:04;64928.75;;;23.82;41.23
7832;BME280;3961;42.058;25.586;2023-04-24T11:27:21;65019.03;;;24.60;42.59
7832;BME280;3961;42.058;25.586;2023-04-24T11:32:35;65034.84;;;24.74;43.00
7832;BME280;3961;42.058;25.586;2023-04-24T11:35:17;65055.97;;;24.92;43.16
7832;BME280;3961;42.058;25.586;2023-04-24T11:37:47;65029.97;;;24.67;43.06
7832;BME280;3961;42.058;25.586;2023-04-24T11:40:17;64994.63;;;24.41;43.78
7832;BME280;3961;42.058;25.586;2023-04-24T11:42:47;64880.28;;;23.35;45.47
7832;BME280;3961;42.058;25.586;2023-04-24T11:45:14;64772.06;;;22.49;49.16
7832;BME280;3961;42.058;25.586;2023-04-24T11:47:41;64679.44;;;21.66;51.35
7832;BME280;3961;42.058;25.586;2023-04-24T11:50:12;64649.03;;;21.39;53.37
7832;BME280;3961;42.058;25.586;2023-04-24T11:52:40;64652.56;;;21.42;54.56
7832;BME280;3961;42.058;25.586;2023-04-24T11:57:45;64632.22;;;21.20;56.16
7832;BME280;3961;42.058;25.586;2023-04-24T12:00:21;64622.94;;;21.19;56.52
7832;BME280;3961;42.058;25.586;2023-04-24T12:02:47;64650.00;;;21.38;56.71
7832;BME280;3961;42.058;25.586;2023-04-24T12:05:39;64749.75;;;22.22;55.60
7832;BME280;3961;42.058;25.586;2023-04-24T12:08:05;64743.91;;;22.17;53.98
7832;BME280;3961;42.058;25.586;2023-04-24T12:10:32;64706.09;;;21.87;54.55
7832;BME280;3961;42.058;25.586;2023-04-24T12:12:59;64769.13;;;22.46;53.69
7832;BME280;3961;42.058;25.586;2023-04-24T12:15:26;64786.47;;;22.59;53.74
7832;BME280;3961;42.058;25.586;2023-04-24T12:17:53;64720.72;;;21.99;54.99
7832;BME280;3961;42.058;25.586;2023-04-24T12:20:30;64728.94;;;22.06;56.07
7832;BME280;3961;42.058;25.586;2023-04-24T12:22:58;64671.38;;;21.54;56.74
7832;BME280;3961;42.058;25.586;2023-04-24T12:25:28;64713.69;;;21.93;55.60
7832;BME280;3961;42.058;25.586;2023-04-24T12:30:32;64689.00;;;21.76;56.03
7832;BME280;3961;42.058;25.586;2023-04-24T12:32:59;64670.66;;;21.58;56.90
7832;BME280;3961;42.058;25.586;2023-04-24T12:35:27;64727.19;;;22.05;55.59
7832;BME280;3961;42.058;25.586;2023-04-24T12:37:53;64751.16;;;22.26;55.16
7832;BME280;3961;42.058;25.586;2023-04-24T12:40:21;64825.34;;;22.95;54.11
7832;BME280;3961;42.058;25.586;2023-04-24T12:42:49;64850.72;;;23.19;53.63
7832;BME280;3961;42.058;25.586;2023-04-24T12:45:17;64838.56;;;23.04;53.57
7832;BME280;3961;42.058;25.586;2023-04-24T12:47:44;64732.41;;;22.09;55.66
7832;BME280;3961;42.058;25.586;2023-04-24T12:50:12;64740.63;;;22.17;55.89
7832;BME280;3961;42.058;25.586;2023-04-24T12:52:39;64769.13;;;22.46;54.86
7832;BME280;3961;42.058;25.586;2023-04-24T12:55:06;64742.22;;;22.23;55.60
7832;BME280;3961;42.058;25.586;2023-04-24T12:57:36;64788.22;;;22.60;53.58
7832;BME280;3961;42.058;25.586;2023-04-24T13:00:03;64771.25;;;22.45;54.12
7832;BME280;3961;42.058;25.586;2023-04-24T13:02:31;64857.06;;;23.18;53.66
7832;BME280;3961;42.058;25.586;2023-04-24T13:04:58;64810.22;;;22.77;53.40
7832;BME280;3961;42.058;25.586;2023-04-24T13:07:23;64874.28;;;23.35;51.46
7832;BME280;3961;42.058;25.586;2023-04-24T13:09:50;64893.00;;;23.51;51.84
7832;BME280;3961;42.058;25.586;2023-04-24T13:12:17;64815.75;;;22.84;52.62
7832;BME280;3961;42.058;25.586;2023-04-24T13:14:42;64760.50;;;22.34;54.35
7832;BME280;3961;42.058;25.586;2023-04-24T13:17:08;64820.19;;;22.86;52.79
7832;BME280;3961;42.058;25.586;2023-04-24T13:19:39;64795.25;;;22.66;53.45
7832;BME280;3961;42.058;25.586;2023-04-24T13:22:04;64803.44;;;22.73;53.28
7832;BME280;3961;42.058;25.586;2023-04-24T13:24:31;64718.84;;;22.02;54.94
7832;BME280;3961;42.058;25.586;2023-04-24T13:26:57;64747.84;;;22.25;54.99
7832;BME280;3961;42.058;25.586;2023-04-24T13:29:23;64756.78;;;22.28;54.21